sensor_id;sensor_type;location;lat;lon;timestamp;pressure;altitude;pressure_sealevel;temperature;humidity
69848;BME280;57143;55.940;37.496;2023-02-21T00:01:42;95629.88;;;-12.64;100.00
69848;BME280;57143;55.940;37.496;2023-02-21T00:04:28;95637.50;;;-12.63;100.00
69848;BME280;57143;55.940;37.496;2023-02-21T00:07:13;95644.81;;;-12.81;100.00
69848;BME280;57143;55.940;37.496;2023-02-21T00:09:58;95638.59;;;-12.72;100.00
69848;BME280;57143;55.940;37.496;2023-02-21T00:12:42;95628.19;;;-12.80;100.00
69848;BME280;57143;55.940;37.496;2023-02-21T00:15:27;95636.66;;;-12.78;100.00
69848;BME280;57143;55.940;37.496;2023-02-21T00:18:11;95633.38;;;-12.94;100.00
69848;BME280;57143;55.940;37.496;2023-02-21T00:20:57;95635.25;;;-12.88;100.00
69848;BME280;57143;55.940;37.496;2023-02-21T00:23:41;95652.09;;;-12.99;100.00
69848;BME280;57143;55.940;37.496;2023-02-21T00:26:26;95650.72;;;-13.09;100.00
69848;BME280;57143;55.940;37.496;2023-02-21T00:29:10;95625.91;;;-13.51;100.00
69848;BME280;57143;55.940;37.496;2023-02-21T00:31:54;95665.16;;;-13.30;100.00
69848;BME280;57143;55.940;37.496;2023-02-21T00:34:39;95672.03;;;-13.29;100.00
69848;BME280;57143;55.940;37.496;2023-02-21T00:37:24;95660.31;;;-13.33;100.00
69848;BME280;57143;55.940;37.496;2023-02-21T00:40:11;95658.84;;;-13.35;100.00
69848;BME280;57143;55.940;37.496;2023-02-21T00:42:56;95679.19;;;-13.39;100.00
69848;BME280;57143;55.940;37.496;2023-02-21T00:45:40;95674.47;;;-13.35;100.00
69848;BME280;57143;55.940;37.496;2023-02-21T00:48:24;95669.91;;;-13.33;100.00
69848;BME280;57143;55.940;37.496;2023-02-21T00:51:09;95667.81;;;-13.38;100.00
69848;BME280;57143;55.940;37.496;2023-02-21T00:53:54;95664.91;;;-13.43;100.00
69848;BME280;57143;55.940;37.496;2023-02-21T00:56:39;95640.72;;;-13.51;100.00
69848;BME280;57143;55.940;37.496;2023-02-21T00:59:23;95664.22;;;-13.37;100.00
69848;BME280;57143;55.940;37.496;2023-02-21T01:02:08;95666.88;;;-13.53;100.00
69848;BME280;57143;55.940;37.496;2023-02-21T01:04:53;95671.00;;;-13.66;100.00
69848;BME280;57143;55.940;37.496;2023-02-21T01:07:38;95673.00;;;-13.68;100.00
69848;BME280;57143;55.940;37.496;2023-02-21T01:10:23;95672.84;;;-13.75;100.00
69848;BME280;57143;55.940;37.496;2023-02-21T01:13:08;95673.50;;;-13.81;100.00
69848;BME280;57143;55.940;37.496;2023-02-21T01:15:52;95634.09;;;-14.16;100.00
69848;BME280;57143;55.940;37.496;2023-02-21T01:18:37;95680.22;;;-13.94;100.00
69848;BME280;57143;55.940;37.496;2023-02-21T01:21:21;95686.25;;;-14.02;100.00
69848;BME280;57143;55.940;37.496;2023-02-21T01:24:08;95668.72;;;-14.24;100.00
69848;BME280;57143;55.940;37.496;2023-02-21T01:26:56;95699.09;;;-14.16;100.00
69848;BME280;57143;55.940;37.496;2023-02-21T01:29:40;95711.66;;;-14.28;100.00
69848;BME280;57143;55.940;37.496;2023-02-21T01:32:25;95706.91;;;-14.24;100.00
69848;BME280;57143;55.940;37.496;2023-02-21T01:35:09;95712.97;;;-14.48;100.00
69848;BME280;57143;55.940;37.496;2023-02-21T01:37:54;95711.34;;;-14.41;100.00
69848;BME280;57143;55.940;37.496;2023-02-21T01:40:38;95697.38;;;-14.48;100.00
69848;BME280;57143;55.940;37.496;2023-02-21T01:43:26;95680.00;;;-14.64;100.00
69848;BME280;57143;55.940;37.496;2023-02-21T01:46:12;95705.50;;;-14.43;100.00
69848;BME280;57143;55.940;37.496;2023-02-21T01:48:59;95713.28;;;-14.43;100.00
69848;BME280;57143;55.940;37.496;2023-02-21T01:51:44;95699.13;;;-14.65;100.00
69848;BME280;57143;55.940;37.496;2023-02-21T01:54:31;95731.63;;;-14.53;100.00
69848;BME280;57143;55.940;37.496;2023-02-21T01:57:17;95718.81;;;-14.70;100.00
69848;BME280;57143;55.940;37.496;2023-02-21T02:00:07;95702.72;;;-14.66;100.00
69848;BME280;57143;55.940;37.496;2023-02-21T02:02:56;95727.25;;;-14.60;100.00
69848;BME280;57143;55.940;37.496;2023-02-21T02:05:43;95738.13;;;-14.73;100.00
69848;BME280;57143;55.940;37.496;2023-02-21T02:08:30;95729.00;;;-14.77;100.00
69848;BME280;57143;55.940;37.496;2023-02-21T02:11:27;95718.59;;;-14.93;100.00
69848;BME280;57143;55.940;37.496;2023-02-21T02:14:28;95714.41;;;-14.70;100.00
69848;BME280;57143;55.940;37.496;2023-02-21T02:17:05;95694.22;;;-15.08;100.00
69848;BME280;57143;55.940;37.496;2023-02-21T02:23:18;95736.47;;;-14.82;100.00
69848;BME280;57143;55.940;37.496;2023-02-21T02:29:26;95728.50;;;-14.88;100.00
69848;BME280;57143;55.940;37.496;2023-02-21T02:32:37;95722.16;;;-14.94;100.00
69848;BME280;57143;55.940;37.496;2023-02-21T02:35:12;95741.38;;;-14.79;100.00
69848;BME280;57143;55.940;37.496;2023-02-21T02:37:47;95742.00;;;-14.77;100.00
69848;BME280;57143;55.940;37.496;2023-02-21T02:40:21;95735.47;;;-14.89;100.00
69848;BME280;57143;55.940;37.496;2023-02-21T02:43:00;95737.91;;;-14.95;100.00
69848;BME280;57143;55.940;37.496;2023-02-21T02:45:33;95730.94;;;-15.03;100.00
69848;BME280;57143;55.940;37.496;2023-02-21T02:48:05;95735.28;;;-15.03;100.00
69848;BME280;57143;55.940;37.496;2023-02-21T02:50:38;95737.91;;;-14.95;100.00
69848;BME280;57143;55.940;37.496;2023-02-21T02:53:06;95737.91;;;-14.95;100.00
69848;BME280;57143;55.940;37.496;2023-02-21T02:55:38;95731.25;;;-14.90;100.00
69848;BME280;57143;55.940;37.496;2023-02-21T02:58:08;95738.72;;;-15.03;100.00
69848;BME280;57143;55.940;37.496;2023-02-21T03:00:39;95753.44;;;-15.11;100.00
69848;BME280;57143;55.940;37.496;2023-02-21T03:03:28;95746.03;;;-14.98;100.00
69848;BME280;57143;55.940;37.496;2023-02-21T03:06:10;95749.56;;;-15.07;100.00
69848;BME280;57143;55.940;37.496;2023-02-21T03:08:44;95636.09;;;-15.89;100.00
69848;BME280;57143;55.940;37.496;2023-02-21T03:11:16;95717.03;;;-15.43;100.00
69848;BME280;57143;55.940;37.496;2023-02-21T03:13:48;95752.28;;;-15.17;100.00
69848;BME280;57143;55.940;37.496;2023-02-21T03:16:20;95727.56;;;-15.45;100.00
69848;BME280;57143;55.940;37.496;2023-02-21T03:18:51;95745.78;;;-15.21;100.00
69848;BME280;57143;55.940;37.496;2023-02-21T03:21:24;95737.81;;;-15.27;100.00
69848;BME280;57143;55.940;37.496;2023-02-21T03:23:56;95719.94;;;-15.38;100.00
69848;BME280;57143;55.940;37.496;2023-02-21T03:26:26;95739.25;;;-15.41;100.00
69848;BME280;57143;55.940;37.496;2023-02-21T03:28:53;95742.63;;;-15.48;100.00
69848;BME280;57143;55.940;37.496;2023-02-21T03:31:23;95751.22;;;-15.48;100.00
69848;BME280;57143;55.940;37.496;2023-02-21T03:33:52;95757.69;;;-15.52;100.00
69848;BME280;57143;55.940;37.496;2023-02-21T03:36:21;95760.84;;;-15.66;100.00
69848;BME280;57143;55.940;37.496;2023-02-21T03:38:49;95769.09;;;-15.71;100.00
69848;BME280;57143;55.940;37.496;2023-02-21T03:41:16;95757.22;;;-15.81;100.00
69848;BME280;57143;55.940;37.496;2023-02-21T03:43:43;95763.06;;;-15.79;100.00
69848;BME280;57143;55.940;37.496;2023-02-21T03:46:10;95771.06;;;-15.65;100.00
69848;BME280;57143;55.940;37.496;2023-02-21T03:48:37;95770.50;;;-15.84;100.00
69848;BME280;57143;55.940;37.496;2023-02-21T03:51:05;95735.09;;;-15.93;100.00
69848;BME280;57143;55.940;37.496;2023-02-21T03:53:33;95764.38;;;-15.75;100.00
69848;BME280;57143;55.940;37.496;2023-02-21T03:56:00;95775.06;;;-15.78;100.00
69848;BME280;57143;55.940;37.496;2023-02-21T03:58:27;95724.22;;;-16.22;100.00
69848;BME280;57143;55.940;37.496;2023-02-21T04:00:55;95774.94;;;-15.94;100.00
69848;BME280;57143;55.940;37.496;2023-02-21T04:03:25;95790.50;;;-15.94;100.00
69848;BME280;57143;55.940;37.496;2023-02-21T04:05:52;95777.75;;;-15.88;100.00
69848;BME280;57143;55.940;37.496;2023-02-21T04:08:19;95774.94;;;-15.94;100.00
69848;BME280;57143;55.940;37.496;2023-02-21T04:10:47;95768.28;;;-15.97;100.00
69848;BME280;57143;55.940;37.496;2023-02-21T04:13:14;95777.09;;;-15.90;100.00
69848;BME280;57143;55.940;37.496;2023-02-21T04:15:43;95778.66;;;-15.97;100.00
69848;BME280;57143;55.940;37.496;2023-02-21T04:18:11;95777.75;;;-16.13;100.00
69848;BME280;57143;55.940;37.496;2023-02-21T04:20:38;95772.69;;;-16.15;100.00
69848;BME280;57143;55.940;37.496;2023-02-21T04:23:05;95796.84;;;-16.14;100.00
69848;BME280;57143;55.940;37.496;2023-02-21T04:25:32;95786.06;;;-16.27;100.00
69848;BME280;57143;55.940;37.496;2023-02-21T04:28:00;95790.38;;;-16.36;100.00
69848;BME280;57143;55.940;37.496;2023-02-21T04:30:28;95798.25;;;-16.20;100.00
69848;BME280;57143;55.940;37.496;2023-02-21T04:32:55;95790.53;;;-16.37;100.00
69848;BME280;57143;55.940;37.496;2023-02-21T04:35:22;95809.06;;;-16.07;100.00
69848;BME280;57143;55.940;37.496;2023-02-21T04:37:49;95795.13;;;-16.06;100.00
69848;BME280;57143;55.940;37.496;2023-02-21T04:40:16;95787.66;;;-16.09;100.00
69848;BME280;57143;55.940;37.496;2023-02-21T04:42:44;95798.34;;;-16.12;100.00
69848;BME280;57143;55.940;37.496;2023-02-21T04:45:12;95803.00;;;-16.15;100.00
69848;BME280;57143;55.940;37.496;2023-02-21T04:47:39;95795.38;;;-16.17;100.00
69848;BME280;57143;55.940;37.496;2023-02-21T04:50:07;95811.16;;;-16.28;100.00
69848;BME280;57143;55.940;37.496;2023-02-21T04:52:34;95791.59;;;-16.48;100.00
69848;BME280;57143;55.940;37.496;2023-02-21T04:55:01;95817.53;;;-16.40;100.00
69848;BME280;57143;55.940;37.496;2023-02-21T04:57:29;95819.50;;;-16.34;100.00
69848;BME280;57143;55.940;37.496;2023-02-21T04:59:57;95830.94;;;-16.44;100.00
69848;BME280;57143;55.940;37.496;2023-02-21T05:02:26;95816.50;;;-16.47;100.00
69848;BME280;57143;55.940;37.496;2023-02-21T05:04:54;95836.75;;;-16.42;100.00
69848;BME280;57143;55.940;37.496;2023-02-21T05:07:21;95823.63;;;-16.49;100.00
69848;BME280;57143;55.940;37.496;2023-02-21T05:09:49;95815.09;;;-16.41;100.00
69848;BME280;57143;55.940;37.496;2023-02-21T05:12:16;95813.22;;;-16.31;100.00
69848;BME280;57143;55.940;37.496;2023-02-21T05:14:43;95823.06;;;-16.35;100.00
69848;BME280;57143;55.940;37.496;2023-02-21T05:17:10;95807.25;;;-16.49;100.00
69848;BME280;57143;55.940;37.496;2023-02-21T05:19:38;95838.22;;;-16.48;100.00
69848;BME280;57143;55.940;37.496;2023-02-21T05:22:05;95838.91;;;-16.38;100.00
69848;BME280;57143;55.940;37.496;2023-02-21T05:24:33;95838.69;;;-16.44;100.00
69848;BME280;57143;55.940;37.496;2023-02-21T05:27:00;95849.13;;;-16.71;100.00
69848;BME280;57143;55.940;37.496;2023-02-21T05:29:27;95850.38;;;-16.58;100.00
69848;BME280;57143;55.940;37.496;2023-02-21T05:31:55;95846.09;;;-16.49;100.00
69848;BME280;57143;55.940;37.496;2023-02-21T05:34:22;95847.75;;;-16.48;100.00
69848;BME280;57143;55.940;37.496;2023-02-21T05:36:50;95856.19;;;-16.46;100.00
69848;BME280;57143;55.940;37.496;2023-02-21T05:39:17;95858.78;;;-16.46;100.00
69848;BME280;57143;55.940;37.496;2023-02-21T05:41:47;95853.22;;;-16.51;100.00
69848;BME280;57143;55.940;37.496;2023-02-21T05:44:15;95864.31;;;-16.41;100.00
69848;BME280;57143;55.940;37.496;2023-02-21T05:46:42;95852.16;;;-16.23;100.00
69848;BME280;57143;55.940;37.496;2023-02-21T05:49:11;95862.50;;;-16.23;100.00
69848;BME280;57143;55.940;37.496;2023-02-21T05:51:40;95853.06;;;-16.32;100.00
69848;BME280;57143;55.940;37.496;2023-02-21T05:54:13;95863.13;;;-16.12;100.00
69848;BME280;57143;55.940;37.496;2023-02-21T05:56:42;95858.34;;;-15.81;100.00
69848;BME280;57143;55.940;37.496;2023-02-21T05:59:10;95840.41;;;-15.75;100.00
69848;BME280;57143;55.940;37.496;2023-02-21T06:01:38;95840.84;;;-15.79;100.00
69848;BME280;57143;55.940;37.496;2023-02-21T06:04:05;95884.53;;;-15.67;100.00
69848;BME280;57143;55.940;37.496;2023-02-21T06:06:33;95884.06;;;-15.44;100.00
69848;BME280;57143;55.940;37.496;2023-02-21T06:09:01;95886.72;;;-15.03;100.00
69848;BME280;57143;55.940;37.496;2023-02-21T06:11:31;95865.66;;;-14.92;100.00
69848;BME280;57143;55.940;37.496;2023-02-21T06:14:00;95924.19;;;-15.31;100.00
69848;BME280;57143;55.940;37.496;2023-02-21T06:16:31;95931.50;;;-14.67;100.00
69848;BME280;57143;55.940;37.496;2023-02-21T06:18:59;95962.28;;;-15.06;100.00
69848;BME280;57143;55.940;37.496;2023-02-21T06:21:27;95978.53;;;-15.29;100.00
69848;BME280;57143;55.940;37.496;2023-02-21T06:23:54;95995.47;;;-15.00;100.00
69848;BME280;57143;55.940;37.496;2023-02-21T06:26:22;96007.53;;;-15.34;100.00
69848;BME280;57143;55.940;37.496;2023-02-21T06:28:51;95991.56;;;-14.96;100.00
69848;BME280;57143;55.940;37.496;2023-02-21T06:31:19;96001.66;;;-14.33;100.00
69848;BME280;57143;55.940;37.496;2023-02-21T06:33:47;95983.91;;;-13.88;100.00
69848;BME280;57143;55.940;37.496;2023-02-21T06:36:17;95934.59;;;-14.06;100.00
69848;BME280;57143;55.940;37.496;2023-02-21T06:38:45;96027.97;;;-13.95;100.00
69848;BME280;57143;55.940;37.496;2023-02-21T06:41:14;95998.50;;;-13.13;100.00
69848;BME280;57143;55.940;37.496;2023-02-21T06:43:41;96019.63;;;-12.84;100.00
69848;BME280;57143;55.940;37.496;2023-02-21T06:46:14;96058.88;;;-13.02;100.00
69848;BME280;57143;55.940;37.496;2023-02-21T06:48:42;96083.28;;;-12.87;100.00
69848;BME280;57143;55.940;37.496;2023-02-21T06:51:09;96105.84;;;-13.44;100.00
69848;BME280;57143;55.940;37.496;2023-02-21T06:53:39;96135.38;;;-13.19;100.00
69848;BME280;57143;55.940;37.496;2023-02-21T06:56:06;96133.13;;;-12.98;100.00
69848;BME280;57143;55.940;37.496;2023-02-21T06:58:34;96149.59;;;-12.33;100.00
69848;BME280;57143;55.940;37.496;2023-02-21T07:01:01;96171.59;;;-12.28;100.00
69848;BME280;57143;55.940;37.496;2023-02-21T07:03:30;96207.28;;;-12.60;100.00
69848;BME280;57143;55.940;37.496;2023-02-21T07:05:57;96225.25;;;-12.49;100.00
69848;BME280;57143;55.940;37.496;2023-02-21T07:08:24;96220.53;;;-11.98;100.00
69848;BME280;57143;55.940;37.496;2023-02-21T07:10:51;96253.47;;;-12.21;100.00
69848;BME280;57143;55.940;37.496;2023-02-21T07:13:19;96258.53;;;-11.79;100.00
69848;BME280;57143;55.940;37.496;2023-02-21T07:15:46;96289.72;;;-12.59;100.00
69848;BME280;57143;55.940;37.496;2023-02-21T07:18:13;96280.50;;;-12.38;100.00
69848;BME280;57143;55.940;37.496;2023-02-21T07:20:42;96293.94;;;-12.74;100.00
69848;BME280;57143;55.940;37.496;2023-02-21T07:23:09;96258.94;;;-12.56;100.00
69848;BME280;57143;55.940;37.496;2023-02-21T07:25:36;96259.66;;;-11.73;100.00
69848;BME280;57143;55.940;37.496;2023-02-21T07:28:04;96300.63;;;-12.06;100.00
69848;BME280;57143;55.940;37.496;2023-02-21T07:30:31;96286.38;;;-11.55;100.00
69848;BME280;57143;55.940;37.496;2023-02-21T07:32:58;96278.25;;;-11.06;100.00
69848;BME280;57143;55.940;37.496;2023-02-21T07:35:26;96293.16;;;-11.22;100.00
69848;BME280;57143;55.940;37.496;2023-02-21T07:37:54;96278.50;;;-11.23;100.00
69848;BME280;57143;55.940;37.496;2023-02-21T07:40:21;96299.16;;;-10.59;100.00
69848;BME280;57143;55.940;37.496;2023-02-21T07:42:48;96314.31;;;-10.93;100.00
69848;BME280;57143;55.940;37.496;2023-02-21T07:45:16;96320.25;;;-10.60;100.00
69848;BME280;57143;55.940;37.496;2023-02-21T07:47:44;96307.56;;;-10.71;100.00
69848;BME280;57143;55.940;37.496;2023-02-21T07:50:12;96336.66;;;-10.36;100.00
69848;BME280;57143;55.940;37.496;2023-02-21T07:52:40;96345.06;;;-10.48;100.00
69848;BME280;57143;55.940;37.496;2023-02-21T07:55:08;96346.53;;;-10.54;100.00
69848;BME280;57143;55.940;37.496;2023-02-21T07:57:36;96354.47;;;-10.78;100.00
69848;BME280;57143;55.940;37.496;2023-02-21T08:00:04;96366.31;;;-10.98;100.00
69848;BME280;57143;55.940;37.496;2023-02-21T08:02:31;96350.75;;;-10.45;100.00
69848;BME280;57143;55.940;37.496;2023-02-21T08:04:59;96352.25;;;-10.42;100.00
69848;BME280;57143;55.940;37.496;2023-02-21T08:07:26;96332.25;;;-10.35;100.00
69848;BME280;57143;55.940;37.496;2023-02-21T08:09:53;96349.03;;;-10.22;100.00
69848;BME280;57143;55.940;37.496;2023-02-21T08:12:21;96368.72;;;-10.89;100.00
69848;BME280;57143;55.940;37.496;2023-02-21T08:14:48;96352.50;;;-10.76;100.00
69848;BME280;57143;55.940;37.496;2023-02-21T08:17:15;96351.78;;;-11.09;100.00
69848;BME280;57143;55.940;37.496;2023-02-21T08:19:42;96333.44;;;-10.15;100.00
69848;BME280;57143;55.940;37.496;2023-02-21T08:22:10;96329.47;;;-10.42;100.00
69848;BME280;57143;55.940;37.496;2023-02-21T08:24:37;96319.34;;;-11.46;100.00
69848;BME280;57143;55.940;37.496;2023-02-21T08:27:04;96314.66;;;-11.04;100.00
69848;BME280;57143;55.940;37.496;2023-02-21T08:29:33;96331.38;;;-10.28;100.00
69848;BME280;57143;55.940;37.496;2023-02-21T08:32:00;96336.47;;;-11.36;100.00
69848;BME280;57143;55.940;37.496;2023-02-21T08:34:27;96346.72;;;-11.10;100.00
69848;BME280;57143;55.940;37.496;2023-02-21T08:36:55;96338.59;;;-11.39;100.00
69848;BME280;57143;55.940;37.496;2023-02-21T08:39:22;96320.94;;;-11.29;100.00
69848;BME280;57143;55.940;37.496;2023-02-21T08:41:49;96278.81;;;-10.80;100.00
69848;BME280;57143;55.940;37.496;2023-02-21T08:44:17;96307.44;;;-11.57;100.00
69848;BME280;57143;55.940;37.496;2023-02-21T08:46:47;96290.13;;;-11.58;100.00
69848;BME280;57143;55.940;37.496;2023-02-21T08:49:15;96280.94;;;-11.30;100.00
69848;BME280;57143;55.940;37.496;2023-02-21T08:51:42;96255.66;;;-11.37;100.00
69848;BME280;57143;55.940;37.496;2023-02-21T08:54:09;96248.31;;;-10.87;100.00
69848;BME280;57143;55.940;37.496;2023-02-21T08:56:36;96281.47;;;-11.42;100.00
69848;BME280;57143;55.940;37.496;2023-02-21T08:59:04;96245.34;;;-10.92;100.00
69848;BME280;57143;55.940;37.496;2023-02-21T09:01:33;96266.94;;;-11.45;100.00
69848;BME280;57143;55.940;37.496;2023-02-21T09:04:02;96235.16;;;-11.10;100.00
69848;BME280;57143;55.940;37.496;2023-02-21T09:06:30;96254.84;;;-11.38;100.00
69848;BME280;57143;55.940;37.496;2023-02-21T09:08:57;96234.91;;;-11.31;100.00
69848;BME280;57143;55.940;37.496;2023-02-21T09:11:24;96218.25;;;-11.38;100.00
69848;BME280;57143;55.940;37.496;2023-02-21T09:13:51;96227.09;;;-11.39;100.00
69848;BME280;57143;55.940;37.496;2023-02-21T09:16:19;96177.31;;;-11.07;100.00
69848;BME280;57143;55.940;37.496;2023-02-21T09:18:53;96221.63;;;-11.21;100.00
69848;BME280;57143;55.940;37.496;2023-02-21T09:21:22;96213.72;;;-11.05;100.00
69848;BME280;57143;55.940;37.496;2023-02-21T09:23:52;96197.03;;;-10.96;100.00
69848;BME280;57143;55.940;37.496;2023-02-21T09:26:20;96164.06;;;-11.05;100.00
69848;BME280;57143;55.940;37.496;2023-02-21T09:28:48;96186.41;;;-10.95;100.00
69848;BME280;57143;55.940;37.496;2023-02-21T09:31:16;96211.00;;;-10.81;100.00
69848;BME280;57143;55.940;37.496;2023-02-21T09:33:43;96176.22;;;-11.20;100.00
69848;BME280;57143;55.940;37.496;2023-02-21T09:36:11;96200.88;;;-10.31;100.00
69848;BME280;57143;55.940;37.496;2023-02-21T09:38:40;96232.44;;;-10.86;100.00
69848;BME280;57143;55.940;37.496;2023-02-21T09:41:09;96189.81;;;-10.63;100.00
69848;BME280;57143;55.940;37.496;2023-02-21T09:43:39;96205.34;;;-10.02;100.00
69848;BME280;57143;55.940;37.496;2023-02-21T09:46:13;96210.69;;;-10.33;100.00
69848;BME280;57143;55.940;37.496;2023-02-21T09:48:43;96223.25;;;-10.82;100.00
69848;BME280;57143;55.940;37.496;2023-02-21T09:51:12;96242.66;;;-10.45;100.00
69848;BME280;57143;55.940;37.496;2023-02-21T09:53:42;96246.47;;;-10.48;100.00
69848;BME280;57143;55.940;37.496;2023-02-21T09:56:13;96219.41;;;-10.18;100.00
69848;BME280;57143;55.940;37.496;2023-02-21T09:58:44;96234.28;;;-9.96;100.00
69848;BME280;57143;55.940;37.496;2023-02-21T10:01:19;96246.63;;;-10.04;100.00
69848;BME280;57143;55.940;37.496;2023-02-21T10:03:53;96260.81;;;-10.21;100.00
69848;BME280;57143;55.940;37.496;2023-02-21T10:06:37;96267.13;;;-10.08;100.00
69848;BME280;57143;55.940;37.496;2023-02-21T10:09:12;96248.97;;;-10.62;100.00
69848;BME280;57143;55.940;37.496;2023-02-21T10:11:45;96212.75;;;-10.20;100.00
69848;BME280;57143;55.940;37.496;2023-02-21T10:14:26;96270.81;;;-9.80;100.00
69848;BME280;57143;55.940;37.496;2023-02-21T10:17:00;96286.19;;;-9.99;100.00
69848;BME280;57143;55.940;37.496;2023-02-21T10:19:31;96261.44;;;-9.74;100.00
69848;BME280;57143;55.940;37.496;2023-02-21T10:22:02;96295.47;;;-10.42;100.00
69848;BME280;57143;55.940;37.496;2023-02-21T10:24:38;96298.88;;;-10.11;100.00
69848;BME280;57143;55.940;37.496;2023-02-21T10:27:06;96306.47;;;-10.46;100.00
69848;BME280;57143;55.940;37.496;2023-02-21T10:29:44;96283.41;;;-10.20;100.00
69848;BME280;57143;55.940;37.496;2023-02-21T10:32:14;96298.41;;;-9.92;100.00
69848;BME280;57143;55.940;37.496;2023-02-21T10:34:41;96292.66;;;-9.65;100.00
69848;BME280;57143;55.940;37.496;2023-02-21T10:37:27;96275.88;;;-9.26;100.00
69848;BME280;57143;55.940;37.496;2023-02-21T10:40:03;96286.47;;;-9.34;100.00
69848;BME280;57143;55.940;37.496;2023-02-21T10:42:36;96262.06;;;-9.06;100.00
69848;BME280;57143;55.940;37.496;2023-02-21T10:45:06;96257.00;;;-8.78;100.00
69848;BME280;57143;55.940;37.496;2023-02-21T10:47:46;96284.44;;;-9.10;100.00
69848;BME280;57143;55.940;37.496;2023-02-21T10:50:15;96296.13;;;-9.35;100.00
69848;BME280;57143;55.940;37.496;2023-02-21T10:53:01;96318.66;;;-9.40;100.00
69848;BME280;57143;55.940;37.496;2023-02-21T10:55:30;96308.06;;;-9.32;100.00
69848;BME280;57143;55.940;37.496;2023-02-21T10:57:58;96311.16;;;-9.14;100.00
69848;BME280;57143;55.940;37.496;2023-02-21T11:00:34;96290.28;;;-9.37;100.00
69848;BME280;57143;55.940;37.496;2023-02-21T11:03:03;96329.53;;;-9.14;100.00
69848;BME280;57143;55.940;37.496;2023-02-21T11:05:31;96328.72;;;-9.00;100.00
69848;BME280;57143;55.940;37.496;2023-02-21T11:08:03;96348.00;;;-9.08;100.00
69848;BME280;57143;55.940;37.496;2023-02-21T11:10:35;96364.19;;;-9.64;100.00
69848;BME280;57143;55.940;37.496;2023-02-21T11:13:12;96374.66;;;-9.41;100.00
69848;BME280;57143;55.940;37.496;2023-02-21T11:15:40;96375.78;;;-9.59;100.00
69848;BME280;57143;55.940;37.496;2023-02-21T11:18:13;96343.00;;;-9.77;100.00
69848;BME280;57143;55.940;37.496;2023-02-21T11:20:41;96382.16;;;-9.38;100.00
69848;BME280;57143;55.940;37.496;2023-02-21T11:23:22;96371.69;;;-9.38;100.00
69848;BME280;57143;55.940;37.496;2023-02-21T11:25:56;96387.25;;;-9.37;100.00
69848;BME280;57143;55.940;37.496;2023-02-21T11:28:25;96385.97;;;-9.41;100.00
69848;BME280;57143;55.940;37.496;2023-02-21T11:31:10;96371.97;;;-9.33;100.00
69848;BME280;57143;55.940;37.496;2023-02-21T11:33:41;96378.31;;;-9.28;100.00
69848;BME280;57143;55.940;37.496;2023-02-21T11:36:15;96387.09;;;-9.21;100.00
69848;BME280;57143;55.940;37.496;2023-02-21T11:38:45;96388.66;;;-9.49;100.00
69848;BME280;57143;55.940;37.496;2023-02-21T11:41:30;96411.00;;;-9.61;100.00
69848;BME280;57143;55.940;37.496;2023-02-21T11:44:00;96357.47;;;-9.89;100.00
69848;BME280;57143;55.940;37.496;2023-02-21T11:46:34;96363.78;;;-9.76;100.00
69848;BME280;57143;55.940;37.496;2023-02-21T11:49:07;96358.41;;;-9.82;100.00
69848;BME280;57143;55.940;37.496;2023-02-21T11:51:43;96351.06;;;-9.87;100.00
69848;BME280;57143;55.940;37.496;2023-02-21T11:54:13;96368.94;;;-9.68;100.00
69848;BME280;57143;55.940;37.496;2023-02-21T11:56:47;96314.34;;;-10.01;100.00
69848;BME280;57143;55.940;37.496;2023-02-21T11:59:28;96342.41;;;-9.87;100.00
69848;BME280;57143;55.940;37.496;2023-02-21T12:02:12;96367.91;;;-9.81;100.00
69848;BME280;57143;55.940;37.496;2023-02-21T12:04:55;96378.16;;;-9.72;100.00
69848;BME280;57143;55.940;37.496;2023-02-21T12:07:30;96376.47;;;-9.65;100.00
69848;BME280;57143;55.940;37.496;2023-02-21T12:10:02;96370.69;;;-9.83;100.00
69848;BME280;57143;55.940;37.496;2023-02-21T12:12:41;96303.06;;;-10.24;100.00
69848;BME280;57143;55.940;37.496;2023-02-21T12:15:20;96398.19;;;-9.79;100.00
69848;BME280;57143;55.940;37.496;2023-02-21T12:18:25;96393.28;;;-9.82;100.00
69848;BME280;57143;55.940;37.496;2023-02-21T12:21:10;96411.72;;;-9.98;100.00
69848;BME280;57143;55.940;37.496;2023-02-21T12:23:43;96385.34;;;-9.96;100.00
69848;BME280;57143;55.940;37.496;2023-02-21T12:26:26;96415.16;;;-10.05;100.00
69848;BME280;57143;55.940;37.496;2023-02-21T12:29:06;96374.34;;;-10.53;100.00
69848;BME280;57143;55.940;37.496;2023-02-21T12:31:56;96422.63;;;-10.17;100.00
69848;BME280;57143;55.940;37.496;2023-02-21T12:34:35;96425.41;;;-10.18;100.00
69848;BME280;57143;55.940;37.496;2023-02-21T12:37:24;96411.91;;;-10.38;100.00
69848;BME280;57143;55.940;37.496;2023-02-21T12:40:02;96404.66;;;-10.28;100.00
69848;BME280;57143;55.940;37.496;2023-02-21T12:42:48;96421.84;;;-10.25;100.00
69848;BME280;57143;55.940;37.496;2023-02-21T12:45:43;96427.78;;;-10.39;100.00
69848;BME280;57143;55.940;37.496;2023-02-21T12:48:17;96425.63;;;-10.36;100.00
69848;BME280;57143;55.940;37.496;2023-02-21T12:50:50;96413.03;;;-10.40;100.00
69848;BME280;57143;55.940;37.496;2023-02-21T12:53:23;96399.91;;;-10.71;100.00
69848;BME280;57143;55.940;37.496;2023-02-21T12:55:54;96434.00;;;-10.48;100.00
69848;BME280;57143;55.940;37.496;2023-02-21T12:58:29;96435.16;;;-10.43;100.00
69848;BME280;57143;55.940;37.496;2023-02-21T13:01:01;96306.06;;;-11.21;100.00
69848;BME280;57143;55.940;37.496;2023-02-21T13:03:44;96443.81;;;-10.42;100.00
69848;BME280;57143;55.940;37.496;2023-02-21T13:06:20;96425.72;;;-10.60;100.00
69848;BME280;57143;55.940;37.496;2023-02-21T13:09:05;96423.25;;;-10.53;100.00